sensor_id;sensor_type;location;lat;lon;timestamp;temperature;humidity
30244;DHT22;64022;53.652;9.792;2023-03-01T00:02:13;20.20;60.30
30244;DHT22;64022;53.652;9.792;2023-03-01T00:04:38;20.20;60.30
30244;DHT22;64022;53.652;9.792;2023-03-01T00:07:04;20.20;60.20
30244;DHT22;64022;53.652;9.792;2023-03-01T00:09:29;20.20;60.20
30244;DHT22;64022;53.652;9.792;2023-03-01T00:11:55;20.20;60.20
30244;DHT22;64022;53.652;9.792;2023-03-01T00:14:21;20.20;60.20
30244;DHT22;64022;53.652;9.792;2023-03-01T00:16:46;20.20;60.20
30244;DHT22;64022;53.652;9.792;2023-03-01T00:19:17;20.10;60.20
30244;DHT22;64022;53.652;9.792;2023-03-01T00:21:43;20.10;60.20
30244;DHT22;64022;53.652;9.792;2023-03-01T00:24:09;20.20;60.20
30244;DHT22;64022;53.652;9.792;2023-03-01T00:26:35;20.20;60.20
30244;DHT22;64022;53.652;9.792;2023-03-01T00:29:00;20.10;60.10
30244;DHT22;64022;53.652;9.792;2023-03-01T00:31:28;20.10;60.10
30244;DHT22;64022;53.652;9.792;2023-03-01T00:33:55;20.10;60.10
30244;DHT22;64022;53.652;9.792;2023-03-01T00:36:26;20.10;60.10
30244;DHT22;64022;53.652;9.792;2023-03-01T00:38:52;20.20;60.20
30244;DHT22;64022;53.652;9.792;2023-03-01T00:41:19;20.10;60.10
30244;DHT22;64022;53.652;9.792;2023-03-01T00:43:45;20.10;60.10
30244;DHT22;64022;53.652;9.792;2023-03-01T00:46:13;20.10;60.10
30244;DHT22;64022;53.652;9.792;2023-03-01T00:48:39;20.10;60.10
30244;DHT22;64022;53.652;9.792;2023-03-01T00:51:10;20.10;60.00
30244;DHT22;64022;53.652;9.792;2023-03-01T00:53:36;20.10;60.10
30244;DHT22;64022;53.652;9.792;2023-03-01T00:56:03;20.10;60.00
30244;DHT22;64022;53.652;9.792;2023-03-01T00:58:29;20.10;60.00
30244;DHT22;64022;53.652;9.792;2023-03-01T01:00:55;20.10;60.00
30244;DHT22;64022;53.652;9.792;2023-03-01T01:03:21;20.10;60.00
30244;DHT22;64022;53.652;9.792;2023-03-01T01:05:47;20.10;60.00
30244;DHT22;64022;53.652;9.792;2023-03-01T01:08:12;20.10;60.50
30244;DHT22;64022;53.652;9.792;2023-03-01T01:10:38;20.10;60.00
30244;DHT22;64022;53.652;9.792;2023-03-01T01:13:04;20.10;60.00
30244;DHT22;64022;53.652;9.792;2023-03-01T01:15:33;20.10;60.00
30244;DHT22;64022;53.652;9.792;2023-03-01T01:17:59;20.10;60.00
30244;DHT22;64022;53.652;9.792;2023-03-01T01:20:24;20.10;60.00
30244;DHT22;64022;53.652;9.792;2023-03-01T01:22:50;20.10;60.00
30244;DHT22;64022;53.652;9.792;2023-03-01T01:25:16;20.10;60.00
30244;DHT22;64022;53.652;9.792;2023-03-01T01:27:42;20.10;60.00
30244;DHT22;64022;53.652;9.792;2023-03-01T01:30:08;20.10;60.00
30244;DHT22;64022;53.652;9.792;2023-03-01T01:32:33;20.10;60.00
30244;DHT22;64022;53.652;9.792;2023-03-01T01:34:59;20.10;60.00
30244;DHT22;64022;53.652;9.792;2023-03-01T01:37:24;20.10;60.00
30244;DHT22;64022;53.652;9.792;2023-03-01T01:39:59;20.10;60.00
30244;DHT22;64022;53.652;9.792;2023-03-01T01:42:25;20.10;60.00
30244;DHT22;64022;53.652;9.792;2023-03-01T01:45:27;20.10;60.00
30244;DHT22;64022;53.652;9.792;2023-03-01T01:47:55;20.10;59.90
30244;DHT22;64022;53.652;9.792;2023-03-01T01:50:23;20.10;60.00
30244;DHT22;64022;53.652;9.792;2023-03-01T01:52:50;20.10;60.00
30244;DHT22;64022;53.652;9.792;2023-03-01T01:55:26;20.10;60.00
30244;DHT22;64022;53.652;9.792;2023-03-01T01:57:55;20.10;60.00
30244;DHT22;64022;53.652;9.792;2023-03-01T02:00:24;20.10;60.00
30244;DHT22;64022;53.652;9.792;2023-03-01T02:02:56;20.10;60.00
30244;DHT22;64022;53.652;9.792;2023-03-01T02:08:19;20.10;59.90
30244;DHT22;64022;53.652;9.792;2023-03-01T02:10:46;20.10;60.00
30244;DHT22;64022;53.652;9.792;2023-03-01T02:13:13;20.10;60.00
30244;DHT22;64022;53.652;9.792;2023-03-01T02:15:40;20.10;60.00
30244;DHT22;64022;53.652;9.792;2023-03-01T02:18:07;20.10;60.00
30244;DHT22;64022;53.652;9.792;2023-03-01T02:20:56;20.10;60.00
30244;DHT22;64022;53.652;9.792;2023-03-01T02:23:26;20.10;59.90
30244;DHT22;64022;53.652;9.792;2023-03-01T02:25:58;20.10;60.00
30244;DHT22;64022;53.652;9.792;2023-03-01T02:28:33;20.10;60.00
30244;DHT22;64022;53.652;9.792;2023-03-01T02:30:59;20.10;60.00
30244;DHT22;64022;53.652;9.792;2023-03-01T02:33:44;20.10;59.90
30244;DHT22;64022;53.652;9.792;2023-03-01T02:36:15;20.10;59.90
30244;DHT22;64022;53.652;9.792;2023-03-01T02:38:41;20.10;59.90
30244;DHT22;64022;53.652;9.792;2023-03-01T02:41:08;20.10;59.90
30244;DHT22;64022;53.652;9.792;2023-03-01T02:43:35;20.10;59.90
30244;DHT22;64022;53.652;9.792;2023-03-01T02:46:08;20.10;59.90
30244;DHT22;64022;53.652;9.792;2023-03-01T02:48:46;20.10;59.90
30244;DHT22;64022;53.652;9.792;2023-03-01T02:54:24;20.10;59.70
30244;DHT22;64022;53.652;9.792;2023-03-01T02:56:51;20.10;60.30
30244;DHT22;64022;53.652;9.792;2023-03-01T02:59:19;20.10;59.90
30244;DHT22;64022;53.652;9.792;2023-03-01T03:01:45;20.10;59.80
30244;DHT22;64022;53.652;9.792;2023-03-01T03:04:15;20.10;59.90
30244;DHT22;64022;53.652;9.792;2023-03-01T03:06:47;20.10;59.80
30244;DHT22;64022;53.652;9.792;2023-03-01T03:09:13;20.10;59.80
30244;DHT22;64022;53.652;9.792;2023-03-01T03:11:39;20.10;59.80
30244;DHT22;64022;53.652;9.792;2023-03-01T03:14:06;20.10;59.80
30244;DHT22;64022;53.652;9.792;2023-03-01T03:16:49;20.10;59.80
30244;DHT22;64022;53.652;9.792;2023-03-01T03:19:16;20.10;59.80
30244;DHT22;64022;53.652;9.792;2023-03-01T03:21:42;20.10;59.80
30244;DHT22;64022;53.652;9.792;2023-03-01T03:24:08;20.10;59.70
30244;DHT22;64022;53.652;9.792;2023-03-01T03:26:33;20.10;59.70
30244;DHT22;64022;53.652;9.792;2023-03-01T03:28:59;20.10;59.70
30244;DHT22;64022;53.652;9.792;2023-03-01T03:31:25;20.10;59.70
30244;DHT22;64022;53.652;9.792;2023-03-01T03:33:50;20.10;59.70
30244;DHT22;64022;53.652;9.792;2023-03-01T03:36:20;20.10;59.70
30244;DHT22;64022;53.652;9.792;2023-03-01T03:38:46;20.10;60.20
30244;DHT22;64022;53.652;9.792;2023-03-01T03:41:12;20.10;59.80
30244;DHT22;64022;53.652;9.792;2023-03-01T03:43:39;20.10;59.70
30244;DHT22;64022;53.652;9.792;2023-03-01T03:46:06;20.20;59.90
30244;DHT22;64022;53.652;9.792;2023-03-01T03:48:34;20.10;59.80
30244;DHT22;64022;53.652;9.792;2023-03-01T03:51:00;20.20;59.90
30244;DHT22;64022;53.652;9.792;2023-03-01T03:53:26;20.20;59.90
30244;DHT22;64022;53.652;9.792;2023-03-01T03:55:52;20.20;60.00
30244;DHT22;64022;53.652;9.792;2023-03-01T03:58:19;20.10;59.60
30244;DHT22;64022;53.652;9.792;2023-03-01T04:00:47;20.20;60.10
30244;DHT22;64022;53.652;9.792;2023-03-01T04:03:15;20.20;60.10
30244;DHT22;64022;53.652;9.792;2023-03-01T04:05:41;20.20;60.10
30244;DHT22;64022;53.652;9.792;2023-03-01T04:08:07;20.20;60.10
30244;DHT22;64022;53.652;9.792;2023-03-01T04:13:00;20.20;60.20
30244;DHT22;64022;53.652;9.792;2023-03-01T04:15:26;20.20;60.20
30244;DHT22;64022;53.652;9.792;2023-03-01T04:17:53;20.20;60.20
30244;DHT22;64022;53.652;9.792;2023-03-01T04:20:22;20.20;60.20
30244;DHT22;64022;53.652;9.792;2023-03-01T04:22:51;20.20;60.20
30244;DHT22;64022;53.652;9.792;2023-03-01T04:25:18;20.20;60.20
30244;DHT22;64022;53.652;9.792;2023-03-01T04:27:43;20.30;60.30
30244;DHT22;64022;53.652;9.792;2023-03-01T04:30:09;20.20;60.20
30244;DHT22;64022;53.652;9.792;2023-03-01T04:32:35;20.20;60.30
30244;DHT22;64022;53.652;9.792;2023-03-01T04:35:00;20.20;60.30
30244;DHT22;64022;53.652;9.792;2023-03-01T04:37:26;20.20;60.30
30244;DHT22;64022;53.652;9.792;2023-03-01T04:39:52;20.20;60.30
30244;DHT22;64022;53.652;9.792;2023-03-01T04:42:18;20.30;60.30
30244;DHT22;64022;53.652;9.792;2023-03-01T04:44:44;20.20;60.30
30244;DHT22;64022;53.652;9.792;2023-03-01T04:47:09;20.20;60.30
30244;DHT22;64022;53.652;9.792;2023-03-01T04:49:35;20.20;60.30
30244;DHT22;64022;53.652;9.792;2023-03-01T04:52:01;20.20;60.30
30244;DHT22;64022;53.652;9.792;2023-03-01T04:54:31;20.20;60.30
30244;DHT22;64022;53.652;9.792;2023-03-01T04:56:57;20.20;60.30
30244;DHT22;64022;53.652;9.792;2023-03-01T04:59:23;20.20;60.30
30244;DHT22;64022;53.652;9.792;2023-03-01T05:01:49;20.20;60.30
30244;DHT22;64022;53.652;9.792;2023-03-01T05:04:15;20.20;60.30
30244;DHT22;64022;53.652;9.792;2023-03-01T05:06:40;20.20;60.30
30244;DHT22;64022;53.652;9.792;2023-03-01T05:09:06;20.20;60.30
30244;DHT22;64022;53.652;9.792;2023-03-01T05:11:32;20.20;60.30
30244;DHT22;64022;53.652;9.792;2023-03-01T05:14:02;20.20;60.30
30244;DHT22;64022;53.652;9.792;2023-03-01T05:16:28;20.20;60.30
30244;DHT22;64022;53.652;9.792;2023-03-01T05:18:53;20.20;60.30
30244;DHT22;64022;53.652;9.792;2023-03-01T05:21:20;20.20;60.30
30244;DHT22;64022;53.652;9.792;2023-03-01T05:23:46;20.20;60.30
30244;DHT22;64022;53.652;9.792;2023-03-01T05:26:12;20.20;60.30
30244;DHT22;64022;53.652;9.792;2023-03-01T05:28:38;20.20;60.20
30244;DHT22;64022;53.652;9.792;2023-03-01T05:31:03;20.20;60.30
30244;DHT22;64022;53.652;9.792;2023-03-01T05:33:39;20.20;60.30
30244;DHT22;64022;53.652;9.792;2023-03-01T05:36:08;20.20;60.30
30244;DHT22;64022;53.652;9.792;2023-03-01T05:38:35;20.20;60.30
30244;DHT22;64022;53.652;9.792;2023-03-01T05:41:01;20.20;60.30
30244;DHT22;64022;53.652;9.792;2023-03-01T05:43:30;20.20;60.30
30244;DHT22;64022;53.652;9.792;2023-03-01T05:45:57;20.20;60.30
30244;DHT22;64022;53.652;9.792;2023-03-01T05:48:23;20.20;60.30
30244;DHT22;64022;53.652;9.792;2023-03-01T05:50:49;20.20;60.30
30244;DHT22;64022;53.652;9.792;2023-03-01T05:53:16;20.20;60.20
30244;DHT22;64022;53.652;9.792;2023-03-01T05:55:43;20.20;60.30
30244;DHT22;64022;53.652;9.792;2023-03-01T05:58:14;20.20;60.20
30244;DHT22;64022;53.652;9.792;2023-03-01T06:00:40;20.20;60.20
30244;DHT22;64022;53.652;9.792;2023-03-01T06:03:06;20.20;60.20
30244;DHT22;64022;53.652;9.792;2023-03-01T06:05:32;20.30;60.20
30244;DHT22;64022;53.652;9.792;2023-03-01T06:08:02;20.20;60.20
30244;DHT22;64022;53.652;9.792;2023-03-01T06:10:29;20.30;60.20
30244;DHT22;64022;53.652;9.792;2023-03-01T06:12:55;20.20;60.20
30244;DHT22;64022;53.652;9.792;2023-03-01T06:15:21;20.30;60.20
30244;DHT22;64022;53.652;9.792;2023-03-01T06:17:47;20.20;60.20
30244;DHT22;64022;53.652;9.792;2023-03-01T06:20:17;20.30;60.20
30244;DHT22;64022;53.652;9.792;2023-03-01T06:22:44;20.30;60.20
30244;DHT22;64022;53.652;9.792;2023-03-01T06:25:11;20.30;60.20
30244;DHT22;64022;53.652;9.792;2023-03-01T06:27:38;20.30;60.20
30244;DHT22;64022;53.652;9.792;2023-03-01T06:30:04;20.30;60.20
30244;DHT22;64022;53.652;9.792;2023-03-01T06:32:29;20.30;60.10
30244;DHT22;64022;53.652;9.792;2023-03-01T06:34:56;20.30;60.10
30244;DHT22;64022;53.652;9.792;2023-03-01T06:37:23;20.30;60.10
30244;DHT22;64022;53.652;9.792;2023-03-01T06:39:48;20.30;60.10
30244;DHT22;64022;53.652;9.792;2023-03-01T06:42:14;20.30;60.00
30244;DHT22;64022;53.652;9.792;2023-03-01T06:44:39;20.30;60.00
30244;DHT22;64022;53.652;9.792;2023-03-01T06:47:05;20.30;60.00
30244;DHT22;64022;53.652;9.792;2023-03-01T06:49:30;20.30;60.00
30244;DHT22;64022;53.652;9.792;2023-03-01T06:51:57;20.30;60.00
30244;DHT22;64022;53.652;9.792;2023-03-01T06:54:22;20.30;60.00
30244;DHT22;64022;53.652;9.792;2023-03-01T06:56:49;20.30;60.00
30244;DHT22;64022;53.652;9.792;2023-03-01T06:59:15;20.30;60.50
30244;DHT22;64022;53.652;9.792;2023-03-01T07:01:41;20.30;60.00
30244;DHT22;64022;53.652;9.792;2023-03-01T07:04:06;20.30;60.00
30244;DHT22;64022;53.652;9.792;2023-03-01T07:06:32;20.30;60.00
30244;DHT22;64022;53.652;9.792;2023-03-01T07:08:57;20.30;60.00
30244;DHT22;64022;53.652;9.792;2023-03-01T07:11:23;20.30;60.00
30244;DHT22;64022;53.652;9.792;2023-03-01T07:13:48;20.30;60.00
30244;DHT22;64022;53.652;9.792;2023-03-01T07:16:14;20.30;60.00
30244;DHT22;64022;53.652;9.792;2023-03-01T07:18:41;20.20;59.80
30244;DHT22;64022;53.652;9.792;2023-03-01T07:21:08;20.30;59.90
30244;DHT22;64022;53.652;9.792;2023-03-01T07:23:34;20.30;59.90
30244;DHT22;64022;53.652;9.792;2023-03-01T07:25:59;20.30;59.90
30244;DHT22;64022;53.652;9.792;2023-03-01T07:28:26;20.30;59.80
30244;DHT22;64022;53.652;9.792;2023-03-01T07:30:51;20.30;59.80
30244;DHT22;64022;53.652;9.792;2023-03-01T07:33:17;20.20;59.70
30244;DHT22;64022;53.652;9.792;2023-03-01T07:35:43;20.20;59.80
30244;DHT22;64022;53.652;9.792;2023-03-01T07:38:08;20.20;59.80
30244;DHT22;64022;53.652;9.792;2023-03-01T07:40:35;20.20;59.70
30244;DHT22;64022;53.652;9.792;2023-03-01T07:43:00;20.30;59.80
30244;DHT22;64022;53.652;9.792;2023-03-01T07:45:27;20.30;59.80
30244;DHT22;64022;53.652;9.792;2023-03-01T07:47:53;20.30;60.30
30244;DHT22;64022;53.652;9.792;2023-03-01T07:50:19;20.30;59.80
30244;DHT22;64022;53.652;9.792;2023-03-01T07:52:46;20.20;59.70
30244;DHT22;64022;53.652;9.792;2023-03-01T07:55:12;20.30;59.80
30244;DHT22;64022;53.652;9.792;2023-03-01T07:57:38;20.30;59.80
30244;DHT22;64022;53.652;9.792;2023-03-01T08:00:04;20.30;59.80
30244;DHT22;64022;53.652;9.792;2023-03-01T08:02:33;20.30;59.80
30244;DHT22;64022;53.652;9.792;2023-03-01T08:04:59;20.30;59.80
30244;DHT22;64022;53.652;9.792;2023-03-01T08:07:24;20.30;59.70
30244;DHT22;64022;53.652;9.792;2023-03-01T08:09:50;20.30;59.80
30244;DHT22;64022;53.652;9.792;2023-03-01T08:12:15;20.30;59.70
30244;DHT22;64022;53.652;9.792;2023-03-01T08:14:44;20.30;59.70
30244;DHT22;64022;53.652;9.792;2023-03-01T08:17:09;20.30;59.70
30244;DHT22;64022;53.652;9.792;2023-03-01T08:19:35;20.40;59.70
30244;DHT22;64022;53.652;9.792;2023-03-01T08:22:03;20.40;59.70
30244;DHT22;64022;53.652;9.792;2023-03-01T08:24:29;20.40;59.70
30244;DHT22;64022;53.652;9.792;2023-03-01T08:26:54;20.40;59.70
30244;DHT22;64022;53.652;9.792;2023-03-01T08:29:20;20.40;59.70
30244;DHT22;64022;53.652;9.792;2023-03-01T08:31:46;20.40;59.60
30244;DHT22;64022;53.652;9.792;2023-03-01T08:34:14;20.40;59.60
30244;DHT22;64022;53.652;9.792;2023-03-01T08:36:42;20.40;59.60
30244;DHT22;64022;53.652;9.792;2023-03-01T08:39:10;20.40;59.60
30244;DHT22;64022;53.652;9.792;2023-03-01T08:41:37;20.40;59.50
30244;DHT22;64022;53.652;9.792;2023-03-01T08:44:03;20.40;59.50
30244;DHT22;64022;53.652;9.792;2023-03-01T08:46:32;20.40;59.50
30244;DHT22;64022;53.652;9.792;2023-03-01T08:48:57;20.40;59.50
30244;DHT22;64022;53.652;9.792;2023-03-01T08:51:24;20.40;59.50
30244;DHT22;64022;53.652;9.792;2023-03-01T08:53:50;20.40;59.50
30244;DHT22;64022;53.652;9.792;2023-03-01T08:56:17;20.40;59.50
30244;DHT22;64022;53.652;9.792;2023-03-01T08:58:47;20.40;59.40
30244;DHT22;64022;53.652;9.792;2023-03-01T09:01:15;20.40;59.50
30244;DHT22;64022;53.652;9.792;2023-03-01T09:03:41;20.50;59.50
30244;DHT22;64022;53.652;9.792;2023-03-01T09:06:07;20.40;59.40
30244;DHT22;64022;53.652;9.792;2023-03-01T09:08:38;20.40;59.30
30244;DHT22;64022;53.652;9.792;2023-03-01T09:11:06;20.50;59.40
30244;DHT22;64022;53.652;9.792;2023-03-01T09:13:32;20.50;59.50
30244;DHT22;64022;53.652;9.792;2023-03-01T09:16:00;20.50;59.50
30244;DHT22;64022;53.652;9.792;2023-03-01T09:18:25;20.50;59.40
30244;DHT22;64022;53.652;9.792;2023-03-01T09:20:51;20.50;59.50
30244;DHT22;64022;53.652;9.792;2023-03-01T09:23:20;20.50;59.50
30244;DHT22;64022;53.652;9.792;2023-03-01T09:25:46;20.50;59.50
30244;DHT22;64022;53.652;9.792;2023-03-01T09:28:11;20.50;59.60
30244;DHT22;64022;53.652;9.792;2023-03-01T09:30:37;20.50;59.60
30244;DHT22;64022;53.652;9.792;2023-03-01T09:33:03;20.50;59.60
30244;DHT22;64022;53.652;9.792;2023-03-01T09:35:28;20.60;59.60
30244;DHT22;64022;53.652;9.792;2023-03-01T09:37:54;20.50;59.60
30244;DHT22;64022;53.652;9.792;2023-03-01T09:40:21;20.50;59.60
30244;DHT22;64022;53.652;9.792;2023-03-01T09:42:55;20.60;59.60
30244;DHT22;64022;53.652;9.792;2023-03-01T09:45:29;20.50;59.60
30244;DHT22;64022;53.652;9.792;2023-03-01T09:47:58;20.60;59.60
30244;DHT22;64022;53.652;9.792;2023-03-01T09:50:26;20.60;59.70
30244;DHT22;64022;53.652;9.792;2023-03-01T09:52:57;20.50;59.30
30244;DHT22;64022;53.652;9.792;2023-03-01T09:55:45;20.50;59.70
30244;DHT22;64022;53.652;9.792;2023-03-01T09:58:47;20.50;59.60
30244;DHT22;64022;53.652;9.792;2023-03-01T10:01:37;20.50;59.50
30244;DHT22;64022;53.652;9.792;2023-03-01T10:07:10;20.50;59.50
30244;DHT22;64022;53.652;9.792;2023-03-01T10:09:42;20.50;59.60
30244;DHT22;64022;53.652;9.792;2023-03-01T10:12:19;20.50;59.60
30244;DHT22;64022;53.652;9.792;2023-03-01T10:14:58;20.50;59.60
30244;DHT22;64022;53.652;9.792;2023-03-01T10:17:36;20.50;59.60
30244;DHT22;64022;53.652;9.792;2023-03-01T10:20:22;20.50;59.60
30244;DHT22;64022;53.652;9.792;2023-03-01T10:22:48;20.50;59.50
30244;DHT22;64022;53.652;9.792;2023-03-01T10:25:31;20.50;59.60
30244;DHT22;64022;53.652;9.792;2023-03-01T10:30:40;20.50;59.50
30244;DHT22;64022;53.652;9.792;2023-03-01T10:33:29;20.50;59.50
30244;DHT22;64022;53.652;9.792;2023-03-01T10:35:55;20.50;59.50
30244;DHT22;64022;53.652;9.792;2023-03-01T10:38:21;20.50;59.30
30244;DHT22;64022;53.652;9.792;2023-03-01T10:41:06;20.40;59.60
30244;DHT22;64022;53.652;9.792;2023-03-01T10:43:56;20.50;60.00
30244;DHT22;64022;53.652;9.792;2023-03-01T10:49:07;20.50;59.60
30244;DHT22;64022;53.652;9.792;2023-03-01T10:51:35;20.50;59.40
30244;DHT22;64022;53.652;9.792;2023-03-01T10:54:01;20.40;59.70
30244;DHT22;64022;53.652;9.792;2023-03-01T10:56:27;20.40;59.60
30244;DHT22;64022;53.652;9.792;2023-03-01T10:58:58;20.50;59.60
30244;DHT22;64022;53.652;9.792;2023-03-01T11:01:35;20.40;59.60
30244;DHT22;64022;53.652;9.792;2023-03-01T11:04:12;20.50;59.60
30244;DHT22;64022;53.652;9.792;2023-03-01T11:06:40;20.50;59.60
30244;DHT22;64022;53.652;9.792;2023-03-01T11:09:19;20.50;59.60
30244;DHT22;64022;53.652;9.792;2023-03-01T11:11:46;20.50;59.50
30244;DHT22;64022;53.652;9.792;2023-03-01T11:14:20;20.50;59.60
30244;DHT22;64022;53.652;9.792;2023-03-01T11:16:49;20.50;59.60
30244;DHT22;64022;53.652;9.792;2023-03-01T11:19:22;20.40;59.50
30244;DHT22;64022;53.652;9.792;2023-03-01T11:22:17;20.50;59.60
30244;DHT22;64022;53.652;9.792;2023-03-01T11:24:47;20.40;59.40
30244;DHT22;64022;53.652;9.792;2023-03-01T11:27:28;20.50;59.60
30244;DHT22;64022;53.652;9.792;2023-03-01T11:30:20;20.40;59.60
30244;DHT22;64022;53.652;9.792;2023-03-01T11:33:08;20.50;59.60
30244;DHT22;64022;53.652;9.792;2023-03-01T11:35:42;20.50;59.60
30244;DHT22;64022;53.652;9.792;2023-03-01T11:38:27;20.40;59.60
30244;DHT22;64022;53.652;9.792;2023-03-01T11:41:29;20.50;59.60
30244;DHT22;64022;53.652;9.792;2023-03-01T11:44:00;20.40;59.60
30244;DHT22;64022;53.652;9.792;2023-03-01T11:52:08;20.40;59.60
30244;DHT22;64022;53.652;9.792;2023-03-01T11:55:14;20.40;59.70
30244;DHT22;64022;53.652;9.792;2023-03-01T11:58:01;20.40;59.60
30244;DHT22;64022;53.652;9.792;2023-03-01T12:06:24;20.40;59.70
30244;DHT22;64022;53.652;9.792;2023-03-01T12:12:09;20.40;59.80
30244;DHT22;64022;53.652;9.792;2023-03-01T12:15:07;20.40;59.60
30244;DHT22;64022;53.652;9.792;2023-03-01T12:23:31;20.40;59.80
30244;DHT22;64022;53.652;9.792;2023-03-01T12:26:13;20.40;59.70
30244;DHT22;64022;53.652;9.792;2023-03-01T12:34:38;20.40;59.80
30244;DHT22;64022;53.652;9.792;2023-03-01T12:37:39;20.40;59.80
30244;DHT22;64022;53.652;9.792;2023-03-01T12:45:43;20.40;59.70
30244;DHT22;64022;53.652;9.792;2023-03-01T12:51:17;20.40;59.80
30244;DHT22;64022;53.652;9.792;2023-03-01T12:53:52;20.30;59.80
30244;DHT22;64022;53.652;9.792;2023-03-01T12:56:23;20.40;59.90
30244;DHT22;64022;53.652;9.792;2023-03-01T12:59:09;20.40;59.90
30244;DHT22;64022;53.652;9.792;2023-03-01T13:01:53;20.40;59.90
30244;DHT22;64022;53.652;9.792;2023-03-01T13:12:46;20.30;59.90
30244;DHT22;64022;53.652;9.792;2023-03-01T13:15:30;20.30;59.80
30244;DHT22;64022;53.652;9.792;2023-03-01T13:18:07;20.30;59.80
30244;DHT22;64022;53.652;9.792;2023-03-01T13:20:52;20.40;60.00
30244;DHT22;64022;53.652;9.792;2023-03-01T13:31:03;20.40;60.00
30244;DHT22;64022;53.652;9.792;2023-03-01T13:35:56;20.30;60.00
30244;DHT22;64022;53.652;9.792;2023-03-01T13:38:44;20.30;60.00
30244;DHT22;64022;53.652;9.792;2023-03-01T13:41:12;20.30;60.00
30244;DHT22;64022;53.652;9.792;2023-03-01T13:43:38;20.30;60.00
30244;DHT22;64022;53.652;9.792;2023-03-01T13:46:22;20.30;59.80
30244;DHT22;64022;53.652;9.792;2023-03-01T13:48:54;20.30;60.00
30244;DHT22;64022;53.652;9.792;2023-03-01T13:51:25;20.30;60.10
30244;DHT22;64022;53.652;9.792;2023-03-01T13:53:51;20.30;60.10
30244;DHT22;64022;53.652;9.792;2023-03-01T13:56:21;20.30;60.10
30244;DHT22;64022;53.652;9.792;2023-03-01T13:58:58;20.30;60.10
30244;DHT22;64022;53.652;9.792;2023-03-01T14:01:28;20.30;60.10
30244;DHT22;64022;53.652;9.792;2023-03-01T14:03:54;20.30;60.10
30244;DHT22;64022;53.652;9.792;2023-03-01T14:06:31;20.30;60.10
30244;DHT22;64022;53.652;9.792;2023-03-01T14:09:17;20.30;60.10
30244;DHT22;64022;53.652;9.792;2023-03-01T14:12:19;20.30;60.00
30244;DHT22;64022;53.652;9.792;2023-03-01T14:14:56;20.30;60.00
30244;DHT22;64022;53.652;9.792;2023-03-01T14:20:23;20.30;60.00
30244;DHT22;64022;53.652;9.792;2023-03-01T14:22:59;20.30;60.00
30244;DHT22;64022;53.652;9.792;2023-03-01T14:25:28;20.30;60.10
30244;DHT22;64022;53.652;9.792;2023-03-01T14:30:30;20.30;60.10
30244;DHT22;64022;53.652;9.792;2023-03-01T14:32:59;20.30;60.10
30244;DHT22;64022;53.652;9.792;2023-03-01T14:35:29;20.30;60.10
30244;DHT22;64022;53.652;9.792;2023-03-01T14:37:55;20.30;60.10
30244;DHT22;64022;53.652;9.792;2023-03-01T14:40:30;20.30;60.00
30244;DHT22;64022;53.652;9.792;2023-03-01T14:42:58;20.30;60.00
30244;DHT22;64022;53.652;9.792;2023-03-01T14:45:26;20.30;60.00
30244;DHT22;64022;53.652;9.792;2023-03-01T14:47:52;20.30;60.10
30244;DHT22;64022;53.652;9.792;2023-03-01T14:50:25;20.30;56.00
30244;DHT22;64022;53.652;9.792;2023-03-01T14:52:54;20.00;54.70
30244;DHT22;64022;53.652;9.792;2023-03-01T14:55:28;19.80;55.90
30244;DHT22;64022;53.652;9.792;2023-03-01T14:57:56;19.80;56.60
30244;DHT22;64022;53.652;9.792;2023-03-01T15:00:30;19.70;57.10
30244;DHT22;64022;53.652;9.792;2023-03-01T15:03:08;19.80;57.40
30244;DHT22;64022;53.652;9.792;2023-03-01T15:05:39;19.80;57.60
30244;DHT22;64022;53.652;9.792;2023-03-01T15:08:06;19.80;57.70
30244;DHT22;64022;53.652;9.792;2023-03-01T15:10:36;19.90;57.80
30244;DHT22;64022;53.652;9.792;2023-03-01T15:13:12;19.90;57.80
30244;DHT22;64022;53.652;9.792;2023-03-01T15:15:43;19.90;57.90
30244;DHT22;64022;53.652;9.792;2023-03-01T15:18:22;19.90;57.90
30244;DHT22;64022;53.652;9.792;2023-03-01T15:20:51;19.90;57.90
30244;DHT22;64022;53.652;9.792;2023-03-01T15:23:23;20.00;58.00
30244;DHT22;64022;53.652;9.792;2023-03-01T15:25:51;20.00;58.00
30244;DHT22;64022;53.652;9.792;2023-03-01T15:28:32;20.00;58.00
30244;DHT22;64022;53.652;9.792;2023-03-01T15:31:03;20.00;58.10
30244;DHT22;64022;53.652;9.792;2023-03-01T15:33:32;20.10;58.20
30244;DHT22;64022;53.652;9.792;2023-03-01T15:36:00;20.10;58.20
30244;DHT22;64022;53.652;9.792;2023-03-01T15:38:30;20.10;58.20
30244;DHT22;64022;53.652;9.792;2023-03-01T15:40:57;20.10;58.20
30244;DHT22;64022;53.652;9.792;2023-03-01T15:43:45;20.10;58.20
30244;DHT22;64022;53.652;9.792;2023-03-01T15:46:23;20.10;58.20
30244;DHT22;64022;53.652;9.792;2023-03-01T15:49:02;20.10;58.20
30244;DHT22;64022;53.652;9.792;2023-03-01T15:51:37;20.20;58.30
30244;DHT22;64022;53.652;9.792;2023-03-01T15:54:19;20.20;58.40
30244;DHT22;64022;53.652;9.792;2023-03-01T15:56:45;20.20;58.40
30244;DHT22;64022;53.652;9.792;2023-03-01T15:59:11;20.20;58.50
30244;DHT22;64022;53.652;9.792;2023-03-01T16:01:42;20.20;58.50
30244;DHT22;64022;53.652;9.792;2023-03-01T16:04:12;20.20;58.50
30244;DHT22;64022;53.652;9.792;2023-03-01T16:06:53;20.20;58.50
30244;DHT22;64022;53.652;9.792;2023-03-01T16:09:25;20.20;58.50
30244;DHT22;64022;53.652;9.792;2023-03-01T16:11:52;20.20;58.70
30244;DHT22;64022;53.652;9.792;2023-03-01T16:14:18;20.20;58.70
30244;DHT22;64022;53.652;9.792;2023-03-01T16:16:44;20.20;58.70
30244;DHT22;64022;53.652;9.792;2023-03-01T16:19:10;20.30;58.80
30244;DHT22;64022;53.652;9.792;2023-03-01T16:21:37;20.30;58.80
30244;DHT22;64022;53.652;9.792;2023-03-01T16:24:03;20.30;58.90
30244;DHT22;64022;53.652;9.792;2023-03-01T16:26:29;20.30;58.90
30244;DHT22;64022;53.652;9.792;2023-03-01T16:28:55;20.30;59.00
30244;DHT22;64022;53.652;9.792;2023-03-01T16:31:21;20.30;59.00
30244;DHT22;64022;53.652;9.792;2023-03-01T16:33:47;20.30;58.50
30244;DHT22;64022;53.652;9.792;2023-03-01T16:36:17;20.30;59.10
30244;DHT22;64022;53.652;9.792;2023-03-01T16:38:43;20.30;59.20
30244;DHT22;64022;53.652;9.792;2023-03-01T16:41:13;20.30;59.20
30244;DHT22;64022;53.652;9.792;2023-03-01T16:43:40;20.30;59.20
30244;DHT22;64022;53.652;9.792;2023-03-01T16:46:14;20.30;59.20
30244;DHT22;64022;53.652;9.792;2023-03-01T16:48:39;20.30;59.20
30244;DHT22;64022;53.652;9.792;2023-03-01T16:51:06;20.30;59.30
30244;DHT22;64022;53.652;9.792;2023-03-01T16:53:36;20.30;59.30
30244;DHT22;64022;53.652;9.792;2023-03-01T16:56:04;20.30;59.30
30244;DHT22;64022;53.652;9.792;2023-03-01T16:58:30;20.30;59.30
30244;DHT22;64022;53.652;9.792;2023-03-01T17:00:56;20.30;59.90
30244;DHT22;64022;53.652;9.792;2023-03-01T17:03:23;20.30;59.40